sensor_id;sensor_type;location;lat;lon;timestamp;P1;durP1;ratioP1;P2;durP2;ratioP2
67037;SDS011;53940;53.204;6.590;2022-08-05T00:02:10;2.13;;;0.90;;
67037;SDS011;53940;53.204;6.590;2022-08-05T00:05:10;1.40;;;0.80;;
67037;SDS011;53940;53.204;6.590;2022-08-05T00:08:11;1.58;;;0.90;;
67037;SDS011;53940;53.204;6.590;2022-08-05T00:11:12;1.67;;;0.75;;
67037;SDS011;53940;53.204;6.590;2022-08-05T00:14:14;2.03;;;1.05;;
67037;SDS011;53940;53.204;6.590;2022-08-05T00:17:14;1.35;;;0.90;;
67037;SDS011;53940;53.204;6.590;2022-08-05T00:20:15;1.80;;;1.00;;
67037;SDS011;53940;53.204;6.590;2022-08-05T00:23:15;1.60;;;0.88;;
67037;SDS011;53940;53.204;6.590;2022-08-05T00:26:16;2.40;;;1.10;;
67037;SDS011;53940;53.204;6.590;2022-08-05T00:29:16;1.88;;;0.80;;
67037;SDS011;53940;53.204;6.590;2022-08-05T00:32:17;1.95;;;0.90;;
67037;SDS011;53940;53.204;6.590;2022-08-05T00:35:17;1.95;;;0.93;;
67037;SDS011;53940;53.204;6.590;2022-08-05T00:38:17;2.00;;;0.80;;
67037;SDS011;53940;53.204;6.590;2022-08-05T00:41:28;1.70;;;0.90;;
67037;SDS011;53940;53.204;6.590;2022-08-05T00:44:32;1.67;;;0.90;;
67037;SDS011;53940;53.204;6.590;2022-08-05T00:47:33;1.45;;;0.70;;
67037;SDS011;53940;53.204;6.590;2022-08-05T00:50:34;1.63;;;0.80;;
67037;SDS011;53940;53.204;6.590;2022-08-05T00:53:34;1.55;;;0.77;;
67037;SDS011;53940;53.204;6.590;2022-08-05T00:56:34;1.40;;;0.80;;
67037;SDS011;53940;53.204;6.590;2022-08-05T00:59:34;1.73;;;0.70;;
67037;SDS011;53940;53.204;6.590;2022-08-05T01:02:35;1.30;;;0.70;;
67037;SDS011;53940;53.204;6.590;2022-08-05T01:05:35;1.88;;;0.80;;
67037;SDS011;53940;53.204;6.590;2022-08-05T01:08:36;1.40;;;0.70;;
67037;SDS011;53940;53.204;6.590;2022-08-05T01:11:36;1.73;;;0.90;;
67037;SDS011;53940;53.204;6.590;2022-08-05T01:14:56;1.50;;;0.70;;
67037;SDS011;53940;53.204;6.590;2022-08-05T01:18:02;1.35;;;0.80;;
67037;SDS011;53940;53.204;6.590;2022-08-05T01:21:15;1.23;;;0.70;;
67037;SDS011;53940;53.204;6.590;2022-08-05T01:31:54;1.55;;;0.77;;
67037;SDS011;53940;53.204;6.590;2022-08-05T01:34:53;1.52;;;0.70;;
67037;SDS011;53940;53.204;6.590;2022-08-05T01:37:57;1.38;;;1.08;;
67037;SDS011;53940;53.204;6.590;2022-08-05T01:41:00;1.55;;;0.88;;
67037;SDS011;53940;53.204;6.590;2022-08-05T01:44:03;1.40;;;0.80;;
67037;SDS011;53940;53.204;6.590;2022-08-05T01:47:06;1.77;;;0.82;;
67037;SDS011;53940;53.204;6.590;2022-08-05T01:50:09;1.70;;;0.90;;
67037;SDS011;53940;53.204;6.590;2022-08-05T01:53:12;1.02;;;0.60;;
67037;SDS011;53940;53.204;6.590;2022-08-05T01:56:15;1.67;;;0.80;;
67037;SDS011;53940;53.204;6.590;2022-08-05T01:59:19;1.77;;;0.93;;
67037;SDS011;53940;53.204;6.590;2022-08-05T02:02:21;1.65;;;0.90;;
67037;SDS011;53940;53.204;6.590;2022-08-05T02:05:27;1.80;;;0.90;;
67037;SDS011;53940;53.204;6.590;2022-08-05T02:08:31;1.35;;;0.90;;
67037;SDS011;53940;53.204;6.590;2022-08-05T02:11:44;1.55;;;0.90;;
67037;SDS011;53940;53.204;6.590;2022-08-05T02:15:01;1.65;;;0.90;;
67037;SDS011;53940;53.204;6.590;2022-08-05T02:18:09;1.50;;;0.80;;
67037;SDS011;53940;53.204;6.590;2022-08-05T02:21:27;1.08;;;0.60;;
67037;SDS011;53940;53.204;6.590;2022-08-05T02:24:34;1.15;;;0.70;;
67037;SDS011;53940;53.204;6.590;2022-08-05T02:27:37;1.95;;;0.75;;
67037;SDS011;53940;53.204;6.590;2022-08-05T02:30:42;1.55;;;0.70;;
67037;SDS011;53940;53.204;6.590;2022-08-05T02:33:50;1.52;;;0.88;;
67037;SDS011;53940;53.204;6.590;2022-08-05T02:36:55;1.45;;;0.70;;
67037;SDS011;53940;53.204;6.590;2022-08-05T02:39:59;1.98;;;0.80;;
67037;SDS011;53940;53.204;6.590;2022-08-05T02:43:02;1.45;;;0.90;;
67037;SDS011;53940;53.204;6.590;2022-08-05T02:46:05;1.30;;;0.70;;
67037;SDS011;53940;53.204;6.590;2022-08-05T02:49:05;1.30;;;0.80;;
67037;SDS011;53940;53.204;6.590;2022-08-05T02:52:12;1.45;;;0.80;;
67037;SDS011;53940;53.204;6.590;2022-08-05T02:55:14;1.27;;;0.63;;
67037;SDS011;53940;53.204;6.590;2022-08-05T02:58:15;1.08;;;0.60;;
67037;SDS011;53940;53.204;6.590;2022-08-05T03:01:18;1.38;;;0.70;;
67037;SDS011;53940;53.204;6.590;2022-08-05T03:04:22;1.40;;;0.82;;
67037;SDS011;53940;53.204;6.590;2022-08-05T03:07:23;1.35;;;0.82;;
67037;SDS011;53940;53.204;6.590;2022-08-05T03:10:25;0.80;;;0.70;;
67037;SDS011;53940;53.204;6.590;2022-08-05T03:13:26;1.13;;;0.82;;
67037;SDS011;53940;53.204;6.590;2022-08-05T03:16:26;1.48;;;0.60;;
67037;SDS011;53940;53.204;6.590;2022-08-05T03:19:26;1.50;;;0.70;;
67037;SDS011;53940;53.204;6.590;2022-08-05T03:22:27;1.63;;;0.88;;
67037;SDS011;53940;53.204;6.590;2022-08-05T03:25:27;1.58;;;0.70;;
67037;SDS011;53940;53.204;6.590;2022-08-05T03:28:28;1.25;;;0.70;;
67037;SDS011;53940;53.204;6.590;2022-08-05T03:31:29;1.85;;;0.80;;
67037;SDS011;53940;53.204;6.590;2022-08-05T03:34:30;1.17;;;0.80;;
67037;SDS011;53940;53.204;6.590;2022-08-05T03:37:31;0.93;;;0.70;;
67037;SDS011;53940;53.204;6.590;2022-08-05T03:40:32;2.35;;;0.90;;
67037;SDS011;53940;53.204;6.590;2022-08-05T03:46:40;1.63;;;0.80;;
67037;SDS011;53940;53.204;6.590;2022-08-05T03:49:41;1.70;;;0.93;;
67037;SDS011;53940;53.204;6.590;2022-08-05T03:52:49;1.48;;;0.80;;
67037;SDS011;53940;53.204;6.590;2022-08-05T03:56:09;1.27;;;0.80;;
67037;SDS011;53940;53.204;6.590;2022-08-05T03:59:34;1.58;;;0.70;;
67037;SDS011;53940;53.204;6.590;2022-08-05T04:02:45;1.13;;;0.80;;
67037;SDS011;53940;53.204;6.590;2022-08-05T04:05:48;1.38;;;0.95;;
67037;SDS011;53940;53.204;6.590;2022-08-05T04:08:50;1.42;;;0.75;;
67037;SDS011;53940;53.204;6.590;2022-08-05T04:11:51;1.50;;;0.90;;
67037;SDS011;53940;53.204;6.590;2022-08-05T04:14:51;1.17;;;0.80;;
67037;SDS011;53940;53.204;6.590;2022-08-05T04:17:53;1.48;;;0.80;;
67037;SDS011;53940;53.204;6.590;2022-08-05T04:20:54;1.40;;;0.80;;
67037;SDS011;53940;53.204;6.590;2022-08-05T04:23:56;1.58;;;0.90;;
67037;SDS011;53940;53.204;6.590;2022-08-05T04:26:59;1.50;;;0.80;;
67037;SDS011;53940;53.204;6.590;2022-08-05T04:29:59;1.75;;;0.93;;
67037;SDS011;53940;53.204;6.590;2022-08-05T04:32:59;1.83;;;0.80;;
67037;SDS011;53940;53.204;6.590;2022-08-05T04:36:03;1.10;;;0.80;;
67037;SDS011;53940;53.204;6.590;2022-08-05T04:39:03;1.20;;;0.80;;
67037;SDS011;53940;53.204;6.590;2022-08-05T04:42:04;1.63;;;0.80;;
67037;SDS011;53940;53.204;6.590;2022-08-05T04:45:04;2.20;;;0.90;;
67037;SDS011;53940;53.204;6.590;2022-08-05T04:48:12;2.13;;;0.90;;
67037;SDS011;53940;53.204;6.590;2022-08-05T04:51:13;1.40;;;0.70;;
67037;SDS011;53940;53.204;6.590;2022-08-05T04:54:14;1.10;;;0.70;;
67037;SDS011;53940;53.204;6.590;2022-08-05T04:57:14;1.23;;;0.70;;
67037;SDS011;53940;53.204;6.590;2022-08-05T05:00:15;1.80;;;0.82;;
67037;SDS011;53940;53.204;6.590;2022-08-05T05:03:15;2.20;;;0.80;;
67037;SDS011;53940;53.204;6.590;2022-08-05T05:06:15;2.33;;;1.02;;
67037;SDS011;53940;53.204;6.590;2022-08-05T05:09:16;1.23;;;0.70;;
67037;SDS011;53940;53.204;6.590;2022-08-05T05:12:16;1.45;;;0.80;;
67037;SDS011;53940;53.204;6.590;2022-08-05T05:15:16;1.48;;;0.80;;
67037;SDS011;53940;53.204;6.590;2022-08-05T05:18:17;1.48;;;0.90;;
67037;SDS011;53940;53.204;6.590;2022-08-05T05:21:17;1.20;;;0.90;;
67037;SDS011;53940;53.204;6.590;2022-08-05T05:24:18;1.35;;;0.70;;
67037;SDS011;53940;53.204;6.590;2022-08-05T05:27:20;1.23;;;0.65;;
67037;SDS011;53940;53.204;6.590;2022-08-05T05:30:21;1.55;;;1.10;;
67037;SDS011;53940;53.204;6.590;2022-08-05T05:33:22;1.30;;;0.90;;
67037;SDS011;53940;53.204;6.590;2022-08-05T05:36:22;2.03;;;1.00;;
67037;SDS011;53940;53.204;6.590;2022-08-05T05:39:23;1.00;;;0.70;;
67037;SDS011;53940;53.204;6.590;2022-08-05T05:42:23;1.60;;;0.88;;
67037;SDS011;53940;53.204;6.590;2022-08-05T05:45:23;1.67;;;0.90;;
67037;SDS011;53940;53.204;6.590;2022-08-05T05:48:24;2.42;;;0.80;;
67037;SDS011;53940;53.204;6.590;2022-08-05T05:51:24;1.10;;;0.80;;
67037;SDS011;53940;53.204;6.590;2022-08-05T05:54:25;1.95;;;1.00;;
67037;SDS011;53940;53.204;6.590;2022-08-05T05:57:25;1.63;;;0.80;;
67037;SDS011;53940;53.204;6.590;2022-08-05T06:00:25;1.10;;;0.77;;
67037;SDS011;53940;53.204;6.590;2022-08-05T06:03:26;1.80;;;0.85;;
67037;SDS011;53940;53.204;6.590;2022-08-05T06:06:26;1.30;;;0.75;;
67037;SDS011;53940;53.204;6.590;2022-08-05T06:09:27;2.00;;;0.85;;
67037;SDS011;53940;53.204;6.590;2022-08-05T06:12:27;1.02;;;0.70;;
67037;SDS011;53940;53.204;6.590;2022-08-05T06:15:27;1.25;;;0.88;;
67037;SDS011;53940;53.204;6.590;2022-08-05T06:18:28;1.48;;;0.88;;
67037;SDS011;53940;53.204;6.590;2022-08-05T06:21:28;1.33;;;0.80;;
67037;SDS011;53940;53.204;6.590;2022-08-05T06:24:32;1.10;;;0.80;;
67037;SDS011;53940;53.204;6.590;2022-08-05T06:27:35;1.25;;;0.80;;
67037;SDS011;53940;53.204;6.590;2022-08-05T06:30:36;1.02;;;0.70;;
67037;SDS011;53940;53.204;6.590;2022-08-05T06:33:36;1.38;;;0.73;;
67037;SDS011;53940;53.204;6.590;2022-08-05T06:36:36;1.25;;;0.70;;
67037;SDS011;53940;53.204;6.590;2022-08-05T06:39:37;1.25;;;0.70;;
67037;SDS011;53940;53.204;6.590;2022-08-05T06:42:38;0.90;;;0.70;;
67037;SDS011;53940;53.204;6.590;2022-08-05T06:45:38;1.20;;;0.75;;
67037;SDS011;53940;53.204;6.590;2022-08-05T06:48:38;1.05;;;0.65;;
67037;SDS011;53940;53.204;6.590;2022-08-05T06:51:39;1.13;;;0.70;;
67037;SDS011;53940;53.204;6.590;2022-08-05T06:54:39;1.13;;;0.70;;
67037;SDS011;53940;53.204;6.590;2022-08-05T06:57:40;1.10;;;0.70;;
67037;SDS011;53940;53.204;6.590;2022-08-05T07:00:40;1.40;;;0.68;;
67037;SDS011;53940;53.204;6.590;2022-08-05T07:03:40;2.25;;;0.70;;
67037;SDS011;53940;53.204;6.590;2022-08-05T07:06:41;2.85;;;0.90;;
67037;SDS011;53940;53.204;6.590;2022-08-05T07:09:41;1.42;;;0.80;;
67037;SDS011;53940;53.204;6.590;2022-08-05T07:12:41;2.60;;;0.80;;
67037;SDS011;53940;53.204;6.590;2022-08-05T07:16:00;1.30;;;0.70;;
67037;SDS011;53940;53.204;6.590;2022-08-05T07:19:20;1.25;;;0.80;;
67037;SDS011;53940;53.204;6.590;2022-08-05T07:22:20;1.85;;;0.70;;
67037;SDS011;53940;53.204;6.590;2022-08-05T07:25:21;1.10;;;0.60;;
67037;SDS011;53940;53.204;6.590;2022-08-05T07:28:22;1.27;;;0.70;;
67037;SDS011;53940;53.204;6.590;2022-08-05T07:31:24;1.33;;;0.70;;
67037;SDS011;53940;53.204;6.590;2022-08-05T07:34:24;1.40;;;0.80;;
67037;SDS011;53940;53.204;6.590;2022-08-05T07:37:24;1.50;;;0.75;;
67037;SDS011;53940;53.204;6.590;2022-08-05T07:40:25;3.13;;;0.70;;
67037;SDS011;53940;53.204;6.590;2022-08-05T07:43:25;1.05;;;0.60;;
67037;SDS011;53940;53.204;6.590;2022-08-05T07:46:26;1.15;;;0.68;;
67037;SDS011;53940;53.204;6.590;2022-08-05T07:49:29;0.93;;;0.60;;
67037;SDS011;53940;53.204;6.590;2022-08-05T07:52:29;0.80;;;0.50;;
67037;SDS011;53940;53.204;6.590;2022-08-05T07:55:30;0.85;;;0.50;;
67037;SDS011;53940;53.204;6.590;2022-08-05T07:58:30;0.55;;;0.50;;
67037;SDS011;53940;53.204;6.590;2022-08-05T08:01:30;1.05;;;0.70;;
67037;SDS011;53940;53.204;6.590;2022-08-05T08:04:31;1.00;;;0.50;;
67037;SDS011;53940;53.204;6.590;2022-08-05T08:07:31;1.70;;;0.57;;
67037;SDS011;53940;53.204;6.590;2022-08-05T08:10:32;0.95;;;0.68;;
67037;SDS011;53940;53.204;6.590;2022-08-05T08:13:32;1.10;;;0.63;;
67037;SDS011;53940;53.204;6.590;2022-08-05T08:16:33;1.13;;;0.77;;
67037;SDS011;53940;53.204;6.590;2022-08-05T08:19:33;0.68;;;0.40;;
67037;SDS011;53940;53.204;6.590;2022-08-05T08:22:33;0.77;;;0.60;;
67037;SDS011;53940;53.204;6.590;2022-08-05T08:25:33;1.67;;;0.70;;
67037;SDS011;53940;53.204;6.590;2022-08-05T08:28:34;1.15;;;0.75;;
67037;SDS011;53940;53.204;6.590;2022-08-05T08:31:34;1.15;;;0.60;;
67037;SDS011;53940;53.204;6.590;2022-08-05T08:34:35;0.98;;;0.60;;
67037;SDS011;53940;53.204;6.590;2022-08-05T08:37:35;1.30;;;0.70;;
67037;SDS011;53940;53.204;6.590;2022-08-05T08:40:35;0.88;;;0.55;;
67037;SDS011;53940;53.204;6.590;2022-08-05T08:43:36;1.05;;;0.45;;
67037;SDS011;53940;53.204;6.590;2022-08-05T08:46:37;1.35;;;0.80;;
67037;SDS011;53940;53.204;6.590;2022-08-05T08:49:37;0.88;;;0.60;;
67037;SDS011;53940;53.204;6.590;2022-08-05T08:52:44;1.20;;;0.60;;
67037;SDS011;53940;53.204;6.590;2022-08-05T08:55:49;0.50;;;0.50;;
67037;SDS011;53940;53.204;6.590;2022-08-05T08:58:50;1.38;;;0.70;;
67037;SDS011;53940;53.204;6.590;2022-08-05T09:01:50;1.13;;;0.50;;
67037;SDS011;53940;53.204;6.590;2022-08-05T09:04:51;1.10;;;0.60;;
67037;SDS011;53940;53.204;6.590;2022-08-05T09:07:51;1.03;;;0.50;;
67037;SDS011;53940;53.204;6.590;2022-08-05T09:10:53;0.82;;;0.57;;
67037;SDS011;53940;53.204;6.590;2022-08-05T09:13:53;1.27;;;0.60;;
67037;SDS011;53940;53.204;6.590;2022-08-05T09:16:55;1.33;;;0.75;;
67037;SDS011;53940;53.204;6.590;2022-08-05T09:19:55;1.05;;;0.60;;
67037;SDS011;53940;53.204;6.590;2022-08-05T09:26:12;1.02;;;0.60;;
67037;SDS011;53940;53.204;6.590;2022-08-05T09:29:16;0.88;;;0.60;;
67037;SDS011;53940;53.204;6.590;2022-08-05T09:32:17;1.10;;;0.60;;
67037;SDS011;53940;53.204;6.590;2022-08-05T09:35:18;1.02;;;0.60;;
67037;SDS011;53940;53.204;6.590;2022-08-05T09:38:18;0.82;;;0.50;;
67037;SDS011;53940;53.204;6.590;2022-08-05T09:41:19;0.65;;;0.50;;
67037;SDS011;53940;53.204;6.590;2022-08-05T09:47:39;1.00;;;0.55;;
67037;SDS011;53940;53.204;6.590;2022-08-05T09:50:41;1.15;;;0.50;;
67037;SDS011;53940;53.204;6.590;2022-08-05T09:53:45;0.65;;;0.40;;
67037;SDS011;53940;53.204;6.590;2022-08-05T09:56:47;1.35;;;0.60;;
67037;SDS011;53940;53.204;6.590;2022-08-05T09:59:47;0.95;;;0.50;;
67037;SDS011;53940;53.204;6.590;2022-08-05T10:02:48;0.83;;;0.50;;
67037;SDS011;53940;53.204;6.590;2022-08-05T10:06:00;0.70;;;0.57;;
67037;SDS011;53940;53.204;6.590;2022-08-05T10:09:15;0.60;;;0.45;;
67037;SDS011;53940;53.204;6.590;2022-08-05T10:12:16;1.00;;;0.60;;
67037;SDS011;53940;53.204;6.590;2022-08-05T10:18:19;1.23;;;0.50;;
67037;SDS011;53940;53.204;6.590;2022-08-05T10:21:21;1.20;;;0.70;;
67037;SDS011;53940;53.204;6.590;2022-08-05T10:24:22;1.10;;;0.60;;
67037;SDS011;53940;53.204;6.590;2022-08-05T10:27:22;1.20;;;0.50;;
67037;SDS011;53940;53.204;6.590;2022-08-05T10:30:23;0.95;;;0.60;;
67037;SDS011;53940;53.204;6.590;2022-08-05T10:33:25;1.25;;;0.50;;
67037;SDS011;53940;53.204;6.590;2022-08-05T10:36:28;0.70;;;0.50;;
67037;SDS011;53940;53.204;6.590;2022-08-05T10:39:30;0.55;;;0.50;;
67037;SDS011;53940;53.204;6.590;2022-08-05T10:42:34;1.35;;;0.50;;
67037;SDS011;53940;53.204;6.590;2022-08-05T10:45:37;0.90;;;0.50;;
67037;SDS011;53940;53.204;6.590;2022-08-05T10:51:45;0.73;;;0.50;;
67037;SDS011;53940;53.204;6.590;2022-08-05T10:55:03;1.10;;;0.50;;
67037;SDS011;53940;53.204;6.590;2022-08-05T10:58:06;1.58;;;0.50;;
67037;SDS011;53940;53.204;6.590;2022-08-05T11:01:08;1.50;;;0.50;;
67037;SDS011;53940;53.204;6.590;2022-08-05T11:04:13;0.70;;;0.50;;
67037;SDS011;53940;53.204;6.590;2022-08-05T11:07:16;1.15;;;0.52;;
67037;SDS011;53940;53.204;6.590;2022-08-05T11:10:21;0.98;;;0.50;;
67037;SDS011;53940;53.204;6.590;2022-08-05T11:13:42;1.48;;;0.50;;
67037;SDS011;53940;53.204;6.590;2022-08-05T11:16:43;1.15;;;0.57;;
67037;SDS011;53940;53.204;6.590;2022-08-05T11:19:43;1.20;;;0.60;;
67037;SDS011;53940;53.204;6.590;2022-08-05T11:22:46;0.95;;;0.60;;
67037;SDS011;53940;53.204;6.590;2022-08-05T11:26:00;1.98;;;0.60;;
67037;SDS011;53940;53.204;6.590;2022-08-05T11:29:03;0.90;;;0.40;;
67037;SDS011;53940;53.204;6.590;2022-08-05T11:32:22;1.25;;;0.50;;
67037;SDS011;53940;53.204;6.590;2022-08-05T11:38:56;1.45;;;0.50;;
67037;SDS011;53940;53.204;6.590;2022-08-05T11:41:56;1.15;;;0.60;;
67037;SDS011;53940;53.204;6.590;2022-08-05T11:45:00;0.70;;;0.50;;
67037;SDS011;53940;53.204;6.590;2022-08-05T11:48:08;0.70;;;0.40;;
67037;SDS011;53940;53.204;6.590;2022-08-05T11:51:09;1.08;;;0.50;;
67037;SDS011;53940;53.204;6.590;2022-08-05T11:54:13;4.60;;;0.70;;
67037;SDS011;53940;53.204;6.590;2022-08-05T11:57:29;0.57;;;0.40;;
67037;SDS011;53940;53.204;6.590;2022-08-05T12:00:30;2.10;;;0.50;;
67037;SDS011;53940;53.204;6.590;2022-08-05T12:06:54;0.80;;;0.50;;
67037;SDS011;53940;53.204;6.590;2022-08-05T12:09:58;1.08;;;0.50;;
67037;SDS011;53940;53.204;6.590;2022-08-05T12:13:04;1.13;;;0.50;;
67037;SDS011;53940;53.204;6.590;2022-08-05T12:16:04;1.05;;;0.50;;
67037;SDS011;53940;53.204;6.590;2022-08-05T12:19:07;1.50;;;0.60;;
67037;SDS011;53940;53.204;6.590;2022-08-05T12:22:13;2.22;;;0.63;;
67037;SDS011;53940;53.204;6.590;2022-08-05T12:25:14;0.77;;;0.40;;
67037;SDS011;53940;53.204;6.590;2022-08-05T12:28:28;0.95;;;0.52;;
67037;SDS011;53940;53.204;6.590;2022-08-05T12:31:37;0.70;;;0.47;;
67037;SDS011;53940;53.204;6.590;2022-08-05T12:34:38;0.95;;;0.45;;
67037;SDS011;53940;53.204;6.590;2022-08-05T12:37:39;1.17;;;0.60;;
67037;SDS011;53940;53.204;6.590;2022-08-05T12:40:40;1.35;;;0.40;;
67037;SDS011;53940;53.204;6.590;2022-08-05T12:43:50;2.00;;;0.60;;
67037;SDS011;53940;53.204;6.590;2022-08-05T12:46:53;0.85;;;0.40;;
67037;SDS011;53940;53.204;6.590;2022-08-05T12:49:54;0.82;;;0.52;;
67037;SDS011;53940;53.204;6.590;2022-08-05T12:52:55;1.20;;;0.50;;
67037;SDS011;53940;53.204;6.590;2022-08-05T12:55:58;1.05;;;0.50;;
67037;SDS011;53940;53.204;6.590;2022-08-05T12:59:11;0.90;;;0.50;;
67037;SDS011;53940;53.204;6.590;2022-08-05T13:02:15;0.65;;;0.50;;
67037;SDS011;53940;53.204;6.590;2022-08-05T13:05:19;1.02;;;0.57;;
67037;SDS011;53940;53.204;6.590;2022-08-05T13:08:19;1.30;;;0.60;;
67037;SDS011;53940;53.204;6.590;2022-08-05T13:11:21;0.88;;;0.40;;
67037;SDS011;53940;53.204;6.590;2022-08-05T13:14:23;0.93;;;0.38;;
67037;SDS011;53940;53.204;6.590;2022-08-05T13:17:24;1.25;;;0.68;;
67037;SDS011;53940;53.204;6.590;2022-08-05T13:20:32;0.55;;;0.40;;
67037;SDS011;53940;53.204;6.590;2022-08-05T13:23:35;2.25;;;0.50;;
67037;SDS011;53940;53.204;6.590;2022-08-05T13:26:35;1.08;;;0.50;;
67037;SDS011;53940;53.204;6.590;2022-08-05T13:29:35;0.68;;;0.50;;
67037;SDS011;53940;53.204;6.590;2022-08-05T13:32:36;1.02;;;0.50;;
67037;SDS011;53940;53.204;6.590;2022-08-05T13:35:37;0.90;;;0.40;;
67037;SDS011;53940;53.204;6.590;2022-08-05T13:38:37;1.13;;;0.50;;
67037;SDS011;53940;53.204;6.590;2022-08-05T13:41:37;0.50;;;0.40;;
67037;SDS011;53940;53.204;6.590;2022-08-05T13:44:37;0.32;;;0.20;;
67037;SDS011;53940;53.204;6.590;2022-08-05T13:47:38;1.33;;;0.55;;
67037;SDS011;53940;53.204;6.590;2022-08-05T13:50:38;0.75;;;0.40;;
67037;SDS011;53940;53.204;6.590;2022-08-05T13:53:39;0.85;;;0.50;;
67037;SDS011;53940;53.204;6.590;2022-08-05T13:56:43;0.90;;;0.50;;
67037;SDS011;53940;53.204;6.590;2022-08-05T13:59:43;1.17;;;0.50;;
67037;SDS011;53940;53.204;6.590;2022-08-05T14:02:44;0.70;;;0.50;;
67037;SDS011;53940;53.204;6.590;2022-08-05T14:05:44;1.08;;;0.45;;
67037;SDS011;53940;53.204;6.590;2022-08-05T14:08:45;0.90;;;0.40;;
67037;SDS011;53940;53.204;6.590;2022-08-05T14:11:45;0.80;;;0.43;;
67037;SDS011;53940;53.204;6.590;2022-08-05T14:14:46;1.13;;;0.60;;
67037;SDS011;53940;53.204;6.590;2022-08-05T14:17:46;1.70;;;0.50;;
67037;SDS011;53940;53.204;6.590;2022-08-05T14:20:47;0.60;;;0.30;;
67037;SDS011;53940;53.204;6.590;2022-08-05T14:23:47;0.80;;;0.50;;
67037;SDS011;53940;53.204;6.590;2022-08-05T14:26:48;0.50;;;0.40;;
67037;SDS011;53940;53.204;6.590;2022-08-05T14:29:48;1.00;;;0.50;;
67037;SDS011;53940;53.204;6.590;2022-08-05T14:32:48;1.00;;;0.40;;
67037;SDS011;53940;53.204;6.590;2022-08-05T14:35:49;0.40;;;0.30;;
67037;SDS011;53940;53.204;6.590;2022-08-05T14:38:50;0.57;;;0.30;;
67037;SDS011;53940;53.204;6.590;2022-08-05T14:41:50;0.90;;;0.40;;
67037;SDS011;53940;53.204;6.590;2022-08-05T14:44:51;0.82;;;0.50;;
67037;SDS011;53940;53.204;6.590;2022-08-05T14:47:52;0.80;;;0.40;;
67037;SDS011;53940;53.204;6.590;2022-08-05T14:50:52;0.45;;;0.35;;
67037;SDS011;53940;53.204;6.590;2022-08-05T14:53:52;0.38;;;0.30;;
67037;SDS011;53940;53.204;6.590;2022-08-05T14:56:53;1.17;;;0.50;;
67037;SDS011;53940;53.204;6.590;2022-08-05T14:59:53;0.60;;;0.40;;
67037;SDS011;53940;53.204;6.590;2022-08-05T15:02:54;1.65;;;0.60;;
67037;SDS011;53940;53.204;6.590;2022-08-05T15:05:54;0.70;;;0.40;;
67037;SDS011;53940;53.204;6.590;2022-08-05T15:08:55;0.47;;;0.30;;
67037;SDS011;53940;53.204;6.590;2022-08-05T15:11:55;0.98;;;0.50;;
67037;SDS011;53940;53.204;6.590;2022-08-05T15:14:58;0.60;;;0.40;;
67037;SDS011;53940;53.204;6.590;2022-08-05T15:17:58;1.05;;;0.45;;
67037;SDS011;53940;53.204;6.590;2022-08-05T15:20:59;0.70;;;0.50;;
67037;SDS011;53940;53.204;6.590;2022-08-05T15:24:00;0.40;;;0.40;;
67037;SDS011;53940;53.204;6.590;2022-08-05T15:27:00;0.98;;;0.45;;
67037;SDS011;53940;53.204;6.590;2022-08-05T15:30:00;0.47;;;0.30;;
67037;SDS011;53940;53.204;6.590;2022-08-05T15:33:04;1.40;;;0.40;;
67037;SDS011;53940;53.204;6.590;2022-08-05T15:36:05;0.70;;;0.30;;
67037;SDS011;53940;53.204;6.590;2022-08-05T15:39:05;0.70;;;0.40;;
67037;SDS011;53940;53.204;6.590;2022-08-05T15:42:06;0.88;;;0.50;;
67037;SDS011;53940;53.204;6.590;2022-08-05T15:45:06;0.95;;;0.50;;
67037;SDS011;53940;53.204;6.590;2022-08-05T15:48:09;1.05;;;0.50;;
67037;SDS011;53940;53.204;6.590;2022-08-05T15:51:09;0.40;;;0.30;;
67037;SDS011;53940;53.204;6.590;2022-08-05T15:54:10;0.50;;;0.30;;
67037;SDS011;53940;53.204;6.590;2022-08-05T15:57:10;0.40;;;0.32;;
67037;SDS011;53940;53.204;6.590;2022-08-05T16:00:11;0.32;;;0.30;;
67037;SDS011;53940;53.204;6.590;2022-08-05T16:03:12;0.50;;;0.30;;
67037;SDS011;53940;53.204;6.590;2022-08-05T16:06:12;0.68;;;0.43;;
67037;SDS011;53940;53.204;6.590;2022-08-05T16:09:13;0.47;;;0.38;;
67037;SDS011;53940;53.204;6.590;2022-08-05T16:12:14;0.40;;;0.32;;
67037;SDS011;53940;53.204;6.590;2022-08-05T16:15:15;0.52;;;0.40;;
67037;SDS011;53940;53.204;6.590;2022-08-05T16:18:15;0.50;;;0.40;;
67037;SDS011;53940;53.204;6.590;2022-08-05T16:21:15;0.70;;;0.40;;
67037;SDS011;53940;53.204;6.590;2022-08-05T16:24:16;0.43;;;0.40;;
67037;SDS011;53940;53.204;6.590;2022-08-05T16:27:16;1.73;;;0.40;;
67037;SDS011;53940;53.204;6.590;2022-08-05T16:30:16;1.02;;;0.40;;
67037;SDS011;53940;53.204;6.590;2022-08-05T16:33:17;0.90;;;0.38;;
67037;SDS011;53940;53.204;6.590;2022-08-05T16:36:17;1.53;;;0.40;;
67037;SDS011;53940;53.204;6.590;2022-08-05T16:39:18;1.38;;;0.55;;
67037;SDS011;53940;53.204;6.590;2022-08-05T16:42:19;1.88;;;0.30;;
67037;SDS011;53940;53.204;6.590;2022-08-05T16:45:19;1.10;;;0.43;;
67037;SDS011;53940;53.204;6.590;2022-08-05T16:48:20;0.77;;;0.40;;
67037;SDS011;53940;53.204;6.590;2022-08-05T16:51:24;0.52;;;0.32;;
67037;SDS011;53940;53.204;6.590;2022-08-05T16:54:25;0.80;;;0.40;;
67037;SDS011;53940;53.204;6.590;2022-08-05T16:57:25;0.55;;;0.40;;
67037;SDS011;53940;53.204;6.590;2022-08-05T17:00:25;0.52;;;0.40;;
67037;SDS011;53940;53.204;6.590;2022-08-05T17:03:26;1.52;;;0.38;;
67037;SDS011;53940;53.204;6.590;2022-08-05T17:06:26;0.73;;;0.40;;
67037;SDS011;53940;53.204;6.590;2022-08-05T17:09:27;1.30;;;0.47;;
67037;SDS011;53940;53.204;6.590;2022-08-05T17:12:28;0.75;;;0.40;;
67037;SDS011;53940;53.204;6.590;2022-08-05T17:15:29;1.10;;;0.50;;
67037;SDS011;53940;53.204;6.590;2022-08-05T17:18:29;1.15;;;0.43;;
67037;SDS011;53940;53.204;6.590;2022-08-05T17:21:29;1.05;;;0.50;;
67037;SDS011;53940;53.204;6.590;2022-08-05T17:24:30;0.90;;;0.43;;
67037;SDS011;53940;53.204;6.590;2022-08-05T17:27:30;0.65;;;0.40;;
67037;SDS011;53940;53.204;6.590;2022-08-05T17:30:31;0.40;;;0.40;;
67037;SDS011;53940;53.204;6.590;2022-08-05T17:33:31;0.70;;;0.40;;
67037;SDS011;53940;53.204;6.590;2022-08-05T17:36:31;1.02;;;0.50;;
67037;SDS011;53940;53.204;6.590;2022-08-05T17:39:31;0.65;;;0.40;;
67037;SDS011;53940;53.204;6.590;2022-08-05T17:42:32;1.13;;;0.30;;
67037;SDS011;53940;53.204;6.590;2022-08-05T17:45:32;0.50;;;0.30;;
67037;SDS011;53940;53.204;6.590;2022-08-05T17:48:33;1.40;;;0.40;;
67037;SDS011;53940;53.204;6.590;2022-08-05T17:51:33;0.47;;;0.30;;
67037;SDS011;53940;53.204;6.590;2022-08-05T17:54:33;0.80;;;0.38;;
67037;SDS011;53940;53.204;6.590;2022-08-05T17:57:39;0.70;;;0.40;;
67037;SDS011;53940;53.204;6.590;2022-08-05T18:00:42;0.65;;;0.40;;
67037;SDS011;53940;53.204;6.590;2022-08-05T18:03:44;0.52;;;0.32;;
67037;SDS011;53940;53.204;6.590;2022-08-05T18:06:44;0.90;;;0.50;;
67037;SDS011;53940;53.204;6.590;2022-08-05T18:09:45;0.30;;;0.30;;
67037;SDS011;53940;53.204;6.590;2022-08-05T18:12:45;0.43;;;0.32;;
67037;SDS011;53940;53.204;6.590;2022-08-05T18:15:45;0.50;;;0.40;;
67037;SDS011;53940;53.204;6.590;2022-08-05T18:18:46;0.93;;;0.40;;
67037;SDS011;53940;53.204;6.590;2022-08-05T18:21:46;1.02;;;0.50;;
67037;SDS011;53940;53.204;6.590;2022-08-05T18:24:46;0.70;;;0.32;;
67037;SDS011;53940;53.204;6.590;2022-08-05T18:27:47;0.30;;;0.30;;
67037;SDS011;53940;53.204;6.590;2022-08-05T18:30:50;0.47;;;0.30;;
67037;SDS011;53940;53.204;6.590;2022-08-05T18:33:51;0.47;;;0.30;;
67037;SDS011;53940;53.204;6.590;2022-08-05T18:36:52;0.60;;;0.50;;
67037;SDS011;53940;53.204;6.590;2022-08-05T18:39:53;0.60;;;0.40;;
67037;SDS011;53940;53.204;6.590;2022-08-05T18:42:55;0.40;;;0.35;;
67037;SDS011;53940;53.204;6.590;2022-08-05T18:45:57;0.40;;;0.30;;
67037;SDS011;53940;53.204;6.590;2022-08-05T18:48:58;0.52;;;0.40;;